Time;durP1;ratioP1;P1;durP2;ratioP2;P2;SDS_P1;SDS_P2;PMS_P1;PMS_P2;Temp;Humidity;BMP_temperature;BMP_pressure;BME280_temperature;BME280_humidity;BME280_pressure;Samples;Min_cycle;Max_cycle;Signal;HPM_P1;HPM_P2
2022/06/20 00:02:30;;;;;;;;;;;;;;;;;;5040805;28;1477;-69
2022/06/20 00:04:56;;;;;;;;;;;;;;;;;;5022794;28;1460;-69
2022/06/20 00:07:21;;;;;;;;;;;;;;;;;;5040934;28;1527;-70
2022/06/20 00:09:46;;;;;;;;;;;;;;;;;;5040721;28;1444;-70
2022/06/20 00:12:15;;;;;;;;;;;;;;;;;;5040949;28;1445;-70
2022/06/20 00:14:40;;;;;;;;;;;;;;;;;;5040579;28;1543;-70
2022/06/20 00:17:10;;;;;;;;;;;;;;;;;;5040639;28;1889;-70
2022/06/20 00:19:35;;;;;;;;;;;;;;;;;;5040125;28;1426;-70
2022/06/20 00:22:01;;;;;;;;;;;;;;;;;;5040570;28;1480;-70
2022/06/20 00:24:26;;;;;;;;;;;;;;;;;;5040641;28;1571;-70
2022/06/20 00:26:52;;;;;;;;;;;;;;;;;;5040647;28;1515;-70
2022/06/20 00:29:17;;;;;;;;;;;;;;;;;;5039825;28;1433;-70
2022/06/20 00:31:42;;;;;;;;;;;;;;;;;;5040685;28;1428;-70
2022/06/20 00:34:08;;;;;;;;;;;;;;;;;;5040160;28;1453;-70
2022/06/20 00:36:34;;;;;;;;;;;;;;;;;;5041086;28;1890;-71
2022/06/20 00:38:59;;;;;;;;;;;;;;;;;;5040384;28;1579;-70
2022/06/20 00:41:29;;;;;;;;;;;;;;;;;;5040534;28;1389;-70
2022/06/20 00:43:54;;;;;;;;;;;;;;;;;;5039710;28;1524;-70
2022/06/20 00:46:25;;;;;;;;;;;;;;;;;;5041634;28;1472;-70
2022/06/20 00:48:54;;;;;;;;;;;;;;;;;;5043241;28;1476;-70
2022/06/20 00:51:26;;;;;;;;;;;;;;;;;;5043938;28;973;-70
2022/06/20 00:53:56;;;;;;;;;;;;;;;;;;5044055;28;1476;-70
2022/06/20 00:56:28;;;;;;;;;;;;;;;;;;5042093;28;1969;-70
2022/06/20 00:58:57;;;;;;;;;;;;;;;;;;5041123;28;1435;-70
2022/06/20 01:01:27;;;;;;;;;;;;;;;;;;5043426;28;1441;-69
2022/06/20 01:03:54;;;;;;;;;;;;;;;;;;5043594;28;1460;-70
2022/06/20 01:06:23;;;;;;;;;;;;;;;;;;5043865;28;1056;-70
2022/06/20 01:08:50;;;;;;;;;;;;;;;;;;5043464;28;1543;-70
2022/06/20 01:11:18;;;;;;;;;;;;;;;;;;5043509;28;1543;-69
2022/06/20 01:13:43;;;;;;;;;;;;;;;;;;5043576;28;1441;-70
2022/06/20 01:16:18;;;;;;;;;;;;;;;;;;5043154;28;1886;-70
2022/06/20 01:18:44;;;;;;;;;;;;;;;;;;5043223;28;1465;-69
2022/06/20 01:21:12;;;;;;;;;;;;;;;;;;5043237;28;1429;-69
2022/06/20 01:23:37;;;;;;;;;;;;;;;;;;5043451;28;1472;-69
2022/06/20 01:26:18;;;;;;;;;;;;;;;;;;5043206;28;1503;-69
2022/06/20 01:28:45;;;;;;;;;;;;;;;;;;5042767;28;1361;-69
2022/06/20 01:31:13;;;;;;;;;;;;;;;;;;5043113;28;1657;-68
2022/06/20 01:33:38;;;;;;;;;;;;;;;;;;5025268;28;1323;-70
2022/06/20 01:38:48;;;;;;;;;;;;;;;;;;5043204;28;1496;-70
2022/06/20 01:44:02;;;;;;;;;;;;;;;;;;5043244;28;1539;-69
2022/06/20 01:46:29;;;;;;;;;;;;;;;;;;5042690;28;1476;-69
2022/06/20 01:48:57;;;;;;;;;;;;;;;;;;5042680;28;1484;-69
2022/06/20 01:51:23;;;;;;;;;;;;;;;;;;5042875;28;1452;-68
2022/06/20 01:53:50;;;;;;;;;;;;;;;;;;5042684;28;1476;-69
2022/06/20 01:56:15;;;;;;;;;;;;;;;;;;5042771;28;1953;-69
2022/06/20 01:58:44;;;;;;;;;;;;;;;;;;5021704;28;1884;-68
2022/06/20 02:01:11;;;;;;;;;;;;;;;;;;5042488;28;1488;-68
2022/06/20 02:03:39;;;;;;;;;;;;;;;;;;5042783;28;1552;-68
2022/06/20 02:06:07;;;;;;;;;;;;;;;;;;5042392;28;1480;-70
2022/06/20 02:08:35;;;;;;;;;;;;;;;;;;5042493;28;1480;-71
2022/06/20 02:11:04;;;;;;;;;;;;;;;;;;5042152;28;1508;-71
2022/06/20 02:13:31;;;;;;;;;;;;;;;;;;5042405;28;1520;-72
2022/06/20 02:15:59;;;;;;;;;;;;;;;;;;5042238;28;1898;-72
2022/06/20 02:18:26;;;;;;;;;;;;;;;;;;5041883;28;1504;-70
2022/06/20 02:20:52;;;;;;;;;;;;;;;;;;5042409;28;1385;-69
2022/06/20 02:23:20;;;;;;;;;;;;;;;;;;5042178;28;1464;-69
2022/06/20 02:25:47;;;;;;;;;;;;;;;;;;5042092;28;1329;-70
2022/06/20 02:28:16;;;;;;;;;;;;;;;;;;5042016;28;1424;-70
2022/06/20 02:30:41;;;;;;;;;;;;;;;;;;5042158;28;1607;-70
2022/06/20 02:33:13;;;;;;;;;;;;;;;;;;5042163;28;1555;-70
2022/06/20 02:35:39;;;;;;;;;;;;;;;;;;5041824;28;1414;-69
2022/06/20 02:38:04;;;;;;;;;;;;;;;;;;5025739;28;1433;-70
2022/06/20 02:40:31;;;;;;;;;;;;;;;;;;5042347;28;776;-70
2022/06/20 02:43:03;;;;;;;;;;;;;;;;;;5042002;28;1345;-70
2022/06/20 02:45:31;;;;;;;;;;;;;;;;;;5042027;28;1540;-69
2022/06/20 02:47:59;;;;;;;;;;;;;;;;;;5041929;28;1452;-70
2022/06/20 02:50:27;;;;;;;;;;;;;;;;;;5041990;28;1524;-69
2022/06/20 02:52:58;;;;;;;;;;;;;;;;;;5040400;28;1452;-70
2022/06/20 02:55:24;;;;;;;;;;;;;;;;;;5042300;28;1516;-71
2022/06/20 02:57:52;;;;;;;;;;;;;;;;;;5040185;28;1955;-68
2022/06/20 03:00:19;;;;;;;;;;;;;;;;;;5044227;28;1450;-68
2022/06/20 03:02:47;;;;;;;;;;;;;;;;;;5046196;28;1255;-69
2022/06/20 03:05:12;;;;;;;;;;;;;;;;;;5041877;28;1496;-69
2022/06/20 03:07:39;;;;;;;;;;;;;;;;;;5041666;28;1504;-69
2022/06/20 03:10:28;;;;;;;;;;;;;;;;;;5040756;28;1542;-68
2022/06/20 03:12:54;;;;;;;;;;;;;;;;;;5028322;28;1484;-69
2022/06/20 03:15:19;;;;;;;;;;;;;;;;;;5041216;28;1563;-67
2022/06/20 03:17:46;;;;;;;;;;;;;;;;;;5041425;28;1953;-67
2022/06/20 03:20:13;;;;;;;;;;;;;;;;;;5041493;28;830;-67
2022/06/20 03:22:41;;;;;;;;;;;;;;;;;;5041567;28;1274;-68
2022/06/20 03:25:09;;;;;;;;;;;;;;;;;;5041721;28;725;-66
2022/06/20 03:27:36;;;;;;;;;;;;;;;;;;5041305;28;1484;-65
2022/06/20 03:30:17;;;;;;;;;;;;;;;;;;5041408;28;1405;-65
2022/06/20 03:32:43;;;;;;;;;;;;;;;;;;5038769;28;1428;-66
2022/06/20 03:35:08;;;;;;;;;;;;;;;;;;5041381;28;1205;-66
2022/06/20 03:37:33;;;;;;;;;;;;;;;;;;5041413;28;1967;-66
2022/06/20 03:39:58;;;;;;;;;;;;;;;;;;5023321;28;1200;-67
2022/06/20 03:42:24;;;;;;;;;;;;;;;;;;5041401;28;1041;-67
2022/06/20 03:44:51;;;;;;;;;;;;;;;;;;5041176;28;1049;-66
2022/06/20 03:47:29;;;;;;;;;;;;;;;;;;5023317;28;1461;-66
2022/06/20 03:50:05;;;;;;;;;;;;;;;;;;5040372;28;1544;-67
2022/06/20 03:52:34;;;;;;;;;;;;;;;;;;5040670;28;1949;-67
2022/06/20 03:55:12;;;;;;;;;;;;;;;;;;5041302;28;1472;-67
2022/06/20 03:57:40;;;;;;;;;;;;;;;;;;5035146;28;1973;-67
2022/06/20 04:00:05;;;;;;;;;;;;;;;;;;5012983;28;1263;-67
2022/06/20 04:02:37;;;;;;;;;;;;;;;;;;5035144;28;1532;-67
2022/06/20 04:05:22;;;;;;;;;;;;;;;;;;5033322;28;1509;-66
2022/06/20 04:08:03;;;;;;;;;;;;;;;;;;5029667;28;1267;-66
2022/06/20 04:13:19;;;;;;;;;;;;;;;;;;5031428;28;1008;-66
2022/06/20 04:15:57;;;;;;;;;;;;;;;;;;5032376;28;1961;-66
2022/06/20 04:18:29;;;;;;;;;;;;;;;;;;5029882;28;1243;-66
2022/06/20 04:20:57;;;;;;;;;;;;;;;;;;5029755;28;1231;-66
2022/06/20 04:23:28;;;;;;;;;;;;;;;;;;5035774;28;1215;-65
2022/06/20 04:26:00;;;;;;;;;;;;;;;;;;5035716;28;1145;-66
2022/06/20 04:28:38;;;;;;;;;;;;;;;;;;5035371;28;1280;-67
2022/06/20 04:31:09;;;;;;;;;;;;;;;;;;5036764;28;1184;-66
2022/06/20 04:33:38;;;;;;;;;;;;;;;;;;5037736;28;1299;-67
2022/06/20 04:36:06;;;;;;;;;;;;;;;;;;5033370;28;1956;-66
2022/06/20 04:38:39;;;;;;;;;;;;;;;;;;5037358;28;1286;-67
2022/06/20 04:41:13;;;;;;;;;;;;;;;;;;5043826;28;1523;-66
2022/06/20 04:43:42;;;;;;;;;;;;;;;;;;5043864;28;1455;-66
2022/06/20 04:46:25;;;;;;;;;;;;;;;;;;5044331;28;1229;-66
2022/06/20 04:48:50;;;;;;;;;;;;;;;;;;5043699;28;1273;-67
2022/06/20 04:51:24;;;;;;;;;;;;;;;;;;5043655;28;1491;-67
2022/06/20 04:53:49;;;;;;;;;;;;;;;;;;5044044;28;846;-66
2022/06/20 04:56:15;;;;;;;;;;;;;;;;;;5043775;28;1886;-67
2022/06/20 04:58:47;;;;;;;;;;;;;;;;;;5043486;28;1476;-66
2022/06/20 05:01:12;;;;;;;;;;;;;;;;;;5043660;28;998;-67
2022/06/20 05:03:40;;;;;;;;;;;;;;;;;;5042645;28;1487;-67
2022/06/20 05:06:09;;;;;;;;;;;;;;;;;;5042987;28;1478;-66
2022/06/20 05:08:38;;;;;;;;;;;;;;;;;;5043179;28;1671;-67
2022/06/20 05:11:06;;;;;;;;;;;;;;;;;;5043369;28;1448;-67
2022/06/20 05:13:34;;;;;;;;;;;;;;;;;;5043214;28;1492;-68
2022/06/20 05:15:59;;;;;;;;;;;;;;;;;;5043928;28;1902;-67
2022/06/20 05:18:34;;;;;;;;;;;;;;;;;;5043178;28;1196;-67
2022/06/20 05:21:06;;;;;;;;;;;;;;;;;;5043608;28;862;-68
2022/06/20 05:23:31;;;;;;;;;;;;;;;;;;5043513;28;787;-68
2022/06/20 05:25:58;;;;;;;;;;;;;;;;;;5043607;28;863;-69
2022/06/20 05:28:24;;;;;;;;;;;;;;;;;;5042573;28;1448;-69
2022/06/20 05:30:50;;;;;;;;;;;;;;;;;;5039556;28;1741;-69
2022/06/20 05:33:34;;;;;;;;;;;;;;;;;;5042853;28;1420;-69
2022/06/20 05:36:02;;;;;;;;;;;;;;;;;;5042909;28;1898;-68
2022/06/20 05:38:40;;;;;;;;;;;;;;;;;;5042997;28;1532;-69
2022/06/20 05:41:07;;;;;;;;;;;;;;;;;;5043206;28;787;-69
2022/06/20 05:43:33;;;;;;;;;;;;;;;;;;5042770;28;1373;-69
2022/06/20 05:46:00;;;;;;;;;;;;;;;;;;5043058;28;1555;-68
2022/06/20 05:48:29;;;;;;;;;;;;;;;;;;5043078;28;1452;-70
2022/06/20 05:50:59;;;;;;;;;;;;;;;;;;5044021;28;1496;-70
2022/06/20 05:53:28;;;;;;;;;;;;;;;;;;5043605;28;1358;-71
2022/06/20 05:55:57;;;;;;;;;;;;;;;;;;5043829;28;1906;-67
2022/06/20 05:58:26;;;;;;;;;;;;;;;;;;5043458;28;1554;-66
2022/06/20 06:00:53;;;;;;;;;;;;;;;;;;5043850;28;1149;-68
2022/06/20 06:03:22;;;;;;;;;;;;;;;;;;5043985;28;1464;-70
2022/06/20 06:05:50;;;;;;;;;;;;;;;;;;5044284;28;1310;-68
2022/06/20 06:08:20;;;;;;;;;;;;;;;;;;5043365;28;1295;-70
2022/06/20 06:11:06;;;;;;;;;;;;;;;;;;5043583;28;819;-69
2022/06/20 06:13:54;;;;;;;;;;;;;;;;;;5042842;28;1362;-69
2022/06/20 06:19:14;;;;;;;;;;;;;;;;;;5043105;28;1204;-69
2022/06/20 06:21:40;;;;;;;;;;;;;;;;;;5043247;28;891;-69
2022/06/20 06:24:07;;;;;;;;;;;;;;;;;;5043333;28;815;-69
2022/06/20 06:26:34;;;;;;;;;;;;;;;;;;5043435;28;926;-69
2022/06/20 06:28:59;;;;;;;;;;;;;;;;;;5043057;28;1270;-69
2022/06/20 06:31:27;;;;;;;;;;;;;;;;;;5043188;28;922;-69
2022/06/20 06:33:56;;;;;;;;;;;;;;;;;;5043297;28;953;-70
2022/06/20 06:36:23;;;;;;;;;;;;;;;;;;5042975;28;1963;-69
2022/06/20 06:39:00;;;;;;;;;;;;;;;;;;5043010;28;1279;-70
2022/06/20 06:41:30;;;;;;;;;;;;;;;;;;5043157;28;1040;-69
2022/06/20 06:43:57;;;;;;;;;;;;;;;;;;5024644;28;1064;-69
2022/06/20 06:46:33;;;;;;;;;;;;;;;;;;5043189;28;1060;-69
2022/06/20 06:49:14;;;;;;;;;;;;;;;;;;5043492;28;1204;-70
2022/06/20 06:51:39;;;;;;;;;;;;;;;;;;5043485;28;1328;-69
2022/06/20 06:54:11;;;;;;;;;;;;;;;;;;5043298;28;1001;-69
2022/06/20 06:56:48;;;;;;;;;;;;;;;;;;5043241;28;1951;-69
2022/06/20 06:59:17;;;;;;;;;;;;;;;;;;5042909;28;1227;-69
2022/06/20 07:01:48;;;;;;;;;;;;;;;;;;5043442;28;922;-69
2022/06/20 07:04:19;;;;;;;;;;;;;;;;;;5043351;28;819;-69
2022/06/20 07:06:47;;;;;;;;;;;;;;;;;;5043112;28;847;-69
2022/06/20 07:09:18;;;;;;;;;;;;;;;;;;5042913;28;1279;-69
2022/06/20 07:11:45;;;;;;;;;;;;;;;;;;5043264;28;938;-69
2022/06/20 07:14:15;;;;;;;;;;;;;;;;;;5042950;28;815;-69
2022/06/20 07:17:00;;;;;;;;;;;;;;;;;;5047394;28;1902;-69
2022/06/20 07:19:26;;;;;;;;;;;;;;;;;;5062689;28;1331;-69
2022/06/20 07:21:52;;;;;;;;;;;;;;;;;;5063072;28;866;-70
2022/06/20 07:24:19;;;;;;;;;;;;;;;;;;5063127;28;811;-69
2022/06/20 07:26:51;;;;;;;;;;;;;;;;;;5062616;28;1000;-69
2022/06/20 07:29:19;;;;;;;;;;;;;;;;;;5061850;28;1321;-69
2022/06/20 07:31:57;;;;;;;;;;;;;;;;;;5062147;28;1140;-70
2022/06/20 07:34:24;;;;;;;;;;;;;;;;;;5061959;28;914;-70
2022/06/20 07:36:53;;;;;;;;;;;;;;;;;;5061774;28;1957;-70
2022/06/20 07:39:34;;;;;;;;;;;;;;;;;;5061941;28;1215;-70
2022/06/20 07:42:13;;;;;;;;;;;;;;;;;;5062044;28;1239;-70
2022/06/20 07:44:38;;;;;;;;;;;;;;;;;;5061929;28;993;-70
2022/06/20 07:47:13;;;;;;;;;;;;;;;;;;5061770;28;799;-69
2022/06/20 07:49:42;;;;;;;;;;;;;;;;;;5061413;28;1180;-70
2022/06/20 07:52:10;;;;;;;;;;;;;;;;;;5057369;28;1289;-70
2022/06/20 07:54:42;;;;;;;;;;;;;;;;;;5041708;28;957;-70
2022/06/20 07:57:19;;;;;;;;;;;;;;;;;;5040194;28;1977;-70
2022/06/20 07:59:46;;;;;;;;;;;;;;;;;;5041517;28;1196;-69
2022/06/20 08:02:14;;;;;;;;;;;;;;;;;;5041694;28;784;-70
2022/06/20 08:04:41;;;;;;;;;;;;;;;;;;5041498;28;816;-69
2022/06/20 08:07:11;;;;;;;;;;;;;;;;;;5041892;28;820;-69
2022/06/20 08:09:50;;;;;;;;;;;;;;;;;;5041172;28;1182;-70
2022/06/20 08:12:20;;;;;;;;;;;;;;;;;;5041740;28;902;-70
2022/06/20 08:14:50;;;;;;;;;;;;;;;;;;5041827;28;751;-70
2022/06/20 08:17:16;;;;;;;;;;;;;;;;;;5041307;28;1941;-70
2022/06/20 08:19:42;;;;;;;;;;;;;;;;;;5040979;28;1172;-70
2022/06/20 08:22:22;;;;;;;;;;;;;;;;;;5041390;28;834;-69
2022/06/20 08:24:59;;;;;;;;;;;;;;;;;;5041319;28;913;-69
2022/06/20 08:27:27;;;;;;;;;;;;;;;;;;5040962;28;984;-69
2022/06/20 08:29:58;;;;;;;;;;;;;;;;;;5041194;28;1172;-69
2022/06/20 08:32:28;;;;;;;;;;;;;;;;;;5041040;28;795;-69
2022/06/20 08:35:02;;;;;;;;;;;;;;;;;;5041151;28;901;-69
2022/06/20 08:37:32;;;;;;;;;;;;;;;;;;5041050;28;1898;-69
2022/06/20 08:40:10;;;;;;;;;;;;;;;;;;5040922;28;1172;-69
2022/06/20 08:42:58;;;;;;;;;;;;;;;;;;5041455;28;827;-69
2022/06/20 08:45:34;;;;;;;;;;;;;;;;;;5012711;28;1141;-69
2022/06/20 08:48:10;;;;;;;;;;;;;;;;;;5040972;28;1226;-70
2022/06/20 08:50:51;;;;;;;;;;;;;;;;;;5040951;28;1013;-70
2022/06/20 08:53:36;;;;;;;;;;;;;;;;;;5040964;28;1348;-70
2022/06/20 08:56:11;;;;;;;;;;;;;;;;;;5040961;28;1894;-70
2022/06/20 08:58:37;;;;;;;;;;;;;;;;;;5040700;28;1200;-70
2022/06/20 09:01:08;;;;;;;;;;;;;;;;;;5040994;28;803;-69
2022/06/20 09:03:52;;;;;;;;;;;;;;;;;;5040761;28;1004;-69
2022/06/20 09:06:37;;;;;;;;;;;;;;;;;;5040853;28;1024;-69
2022/06/20 09:09:19;;;;;;;;;;;;;;;;;;5043731;28;1290;-69
2022/06/20 09:12:02;;;;;;;;;;;;;;;;;;5044247;28;922;-69
2022/06/20 09:14:40;;;;;;;;;;;;;;;;;;5044267;28;807;-70
2022/06/20 09:17:05;;;;;;;;;;;;;;;;;;5044247;28;1983;-69
2022/06/20 09:19:30;;;;;;;;;;;;;;;;;;5043765;28;1211;-69
2022/06/20 09:22:03;;;;;;;;;;;;;;;;;;5026322;28;1184;-69
2022/06/20 09:24:55;;;;;;;;;;;;;;;;;;5044119;28;775;-69
2022/06/20 09:27:39;;;;;;;;;;;;;;;;;;5003199;28;1570;-69
2022/06/20 09:30:04;;;;;;;;;;;;;;;;;;5043907;28;1310;-69
2022/06/20 09:32:39;;;;;;;;;;;;;;;;;;5025983;28;1187;-69
2022/06/20 09:35:07;;;;;;;;;;;;;;;;;;5043691;28;1052;-70
2022/06/20 09:38:01;;;;;;;;;;;;;;;;;;5043549;28;1915;-69
2022/06/20 09:40:26;;;;;;;;;;;;;;;;;;5043853;28;811;-69
2022/06/20 09:43:02;;;;;;;;;;;;;;;;;;5043805;28;875;-69
2022/06/20 09:45:46;;;;;;;;;;;;;;;;;;5043812;28;913;-69
2022/06/20 09:48:35;;;;;;;;;;;;;;;;;;5043311;28;1192;-68
2022/06/20 09:51:04;;;;;;;;;;;;;;;;;;5035501;28;1320;-69
2022/06/20 09:53:32;;;;;;;;;;;;;;;;;;5043332;28;1348;-69
2022/06/20 09:56:35;;;;;;;;;;;;;;;;;;5043323;28;1886;-69
2022/06/20 09:59:19;;;;;;;;;;;;;;;;;;4981858;28;1433;-69
2022/06/20 10:01:44;;;;;;;;;;;;;;;;;;4982019;28;796;-69
2022/06/20 10:04:28;;;;;;;;;;;;;;;;;;5017607;28;920;-69
2022/06/20 10:07:12;;;;;;;;;;;;;;;;;;5043378;28;824;-69
2022/06/20 10:09:43;;;;;;;;;;;;;;;;;;5025053;28;1185;-69
2022/06/20 10:12:09;;;;;;;;;;;;;;;;;;5043274;28;882;-69
2022/06/20 10:14:43;;;;;;;;;;;;;;;;;;5025311;28;1733;-68
2022/06/20 10:17:13;;;;;;;;;;;;;;;;;;5043142;28;1898;-69
2022/06/20 10:19:48;;;;;;;;;;;;;;;;;;5041685;28;1267;-69
2022/06/20 10:22:16;;;;;;;;;;;;;;;;;;5043295;28;898;-69
2022/06/20 10:25:02;;;;;;;;;;;;;;;;;;5043089;28;1076;-69
2022/06/20 10:27:51;;;;;;;;;;;;;;;;;;5042893;28;1172;-69
2022/06/20 10:30:26;;;;;;;;;;;;;;;;;;5042927;28;863;-69
2022/06/20 10:32:54;;;;;;;;;;;;;;;;;;5042887;28;887;-69
2022/06/20 10:35:28;;;;;;;;;;;;;;;;;;5042793;28;802;-69
2022/06/20 10:37:57;;;;;;;;;;;;;;;;;;5042769;28;1972;-69
2022/06/20 10:40:22;;;;;;;;;;;;;;;;;;5042663;28;823;-69
2022/06/20 10:42:53;;;;;;;;;;;;;;;;;;5042915;28;985;-69
2022/06/20 10:45:24;;;;;;;;;;;;;;;;;;5042884;28;780;-69
2022/06/20 10:48:01;;;;;;;;;;;;;;;;;;5042554;28;1173;-69
2022/06/20 10:50:26;;;;;;;;;;;;;;;;;;5042472;28;1028;-69
2022/06/20 10:52:55;;;;;;;;;;;;;;;;;;5042581;28;1345;-69
2022/06/20 10:55:26;;;;;;;;;;;;;;;;;;5042563;28;882;-68
2022/06/20 10:58:00;;;;;;;;;;;;;;;;;;5042472;28;1890;-69
2022/06/20 11:00:27;;;;;;;;;;;;;;;;;;5042131;28;1013;-69
2022/06/20 11:03:11;;;;;;;;;;;;;;;;;;5042535;28;1603;-69
2022/06/20 11:05:40;;;;;;;;;;;;;;;;;;5042465;28;803;-69
2022/06/20 11:08:26;;;;;;;;;;;;;;;;;;5042198;28;1196;-69
2022/06/20 11:11:15;;;;;;;;;;;;;;;;;;5042166;28;835;-68
2022/06/20 11:13:45;;;;;;;;;;;;;;;;;;5042405;28;997;-69
2022/06/20 11:16:25;;;;;;;;;;;;;;;;;;5042685;28;1890;-70
2022/06/20 11:18:53;;;;;;;;;;;;;;;;;;5042040;28;1195;-70
2022/06/20 11:21:36;;;;;;;;;;;;;;;;;;5042169;28;803;-70
2022/06/20 11:24:01;;;;;;;;;;;;;;;;;;5042445;28;907;-70
2022/06/20 11:26:29;;;;;;;;;;;;;;;;;;5041956;28;977;-67
2022/06/20 11:29:09;;;;;;;;;;;;;;;;;;5042199;28;1267;-68
2022/06/20 11:31:40;;;;;;;;;;;;;;;;;;5041593;28;1033;-69
2022/06/20 11:34:17;;;;;;;;;;;;;;;;;;5041799;28;1017;-68
2022/06/20 11:36:45;;;;;;;;;;;;;;;;;;5041974;28;1963;-69
2022/06/20 11:39:37;;;;;;;;;;;;;;;;;;5041522;28;1279;-69
2022/06/20 11:42:08;;;;;;;;;;;;;;;;;;5041878;28;827;-69
2022/06/20 11:44:52;;;;;;;;;;;;;;;;;;5042151;28;866;-68
2022/06/20 11:47:23;;;;;;;;;;;;;;;;;;5041876;28;834;-69
2022/06/20 11:50:07;;;;;;;;;;;;;;;;;;5041535;28;1160;-68
2022/06/20 11:52:47;;;;;;;;;;;;;;;;;;5041554;28;1336;-68
2022/06/20 11:55:20;;;;;;;;;;;;;;;;;;5041910;28;792;-68
2022/06/20 11:57:45;;;;;;;;;;;;;;;;;;5041379;28;1977;-68
2022/06/20 12:00:14;;;;;;;;;;;;;;;;;;5041530;28;791;-68
2022/06/20 12:02:50;;;;;;;;;;;;;;;;;;5041881;28;823;-69
2022/06/20 12:05:18;;;;;;;;;;;;;;;;;;5041737;28;937;-69
2022/06/20 12:07:46;;;;;;;;;;;;;;;;;;5041638;28;930;-69
2022/06/20 12:10:21;;;;;;;;;;;;;;;;;;5041442;28;930;-70
2022/06/20 12:12:46;;;;;;;;;;;;;;;;;;5041488;28;930;-69
2022/06/20 12:15:34;;;;;;;;;;;;;;;;;;5041312;28;970;-70
2022/06/20 12:17:59;;;;;;;;;;;;;;;;;;5032812;28;1947;-69
2022/06/20 12:23:33;;;;;;;;;;;;;;;;;;5041469;28;664;-69
2022/06/20 12:26:00;;;;;;;;;;;;;;;;;;5041253;28;1012;-69
2022/06/20 12:28:33;;;;;;;;;;;;;;;;;;5041248;28;1267;-70
2022/06/20 12:31:07;;;;;;;;;;;;;;;;;;5040986;28;855;-69
2022/06/20 12:33:33;;;;;;;;;;;;;;;;;;5023343;28;968;-69
2022/06/20 12:36:01;;;;;;;;;;;;;;;;;;5041074;28;807;-69
2022/06/20 12:38:35;;;;;;;;;;;;;;;;;;5040853;28;2673;-69
2022/06/20 12:41:03;;;;;;;;;;;;;;;;;;5039802;28;918;-69
2022/06/20 12:43:47;;;;;;;;;;;;;;;;;;5043748;28;886;-68
2022/06/20 12:46:19;;;;;;;;;;;;;;;;;;5044455;28;878;-69
2022/06/20 12:48:49;;;;;;;;;;;;;;;;;;5044199;28;1238;-69
2022/06/20 12:51:15;;;;;;;;;;;;;;;;;;5044327;28;867;-69
2022/06/20 12:53:46;;;;;;;;;;;;;;;;;;5044459;28;1389;-69
2022/06/20 12:56:20;;;;;;;;;;;;;;;;;;5044275;28;1970;-68
2022/06/20 12:58:45;;;;;;;;;;;;;;;;;;5044211;28;1220;-70
2022/06/20 13:01:23;;;;;;;;;;;;;;;;;;5026455;28;1245;-69
2022/06/20 13:04:05;;;;;;;;;;;;;;;;;;5044582;28;854;-68
2022/06/20 13:06:36;;;;;;;;;;;;;;;;;;5044323;28;997;-68
2022/06/20 13:09:03;;;;;;;;;;;;;;;;;;5044020;28;1299;-69
2022/06/20 13:11:38;;;;;;;;;;;;;;;;;;5043871;28;838;-69
2022/06/20 13:14:15;;;;;;;;;;;;;;;;;;5044241;28;875;-69
2022/06/20 13:16:59;;;;;;;;;;;;;;;;;;5043886;28;1945;-69
2022/06/20 13:19:33;;;;;;;;;;;;;;;;;;5043972;28;1196;-69
2022/06/20 13:22:02;;;;;;;;;;;;;;;;;;5043871;28;1048;-69
2022/06/20 13:24:33;;;;;;;;;;;;;;;;;;5026227;28;1285;-70
2022/06/20 13:27:17;;;;;;;;;;;;;;;;;;5043961;28;891;-69
2022/06/20 13:29:47;;;;;;;;;;;;;;;;;;5043724;28;1169;-69
2022/06/20 13:32:25;;;;;;;;;;;;;;;;;;5043624;28;807;-69
2022/06/20 13:34:53;;;;;;;;;;;;;;;;;;5044231;28;807;-69
2022/06/20 13:37:32;;;;;;;;;;;;;;;;;;5025947;28;1906;-68
2022/06/20 13:40:01;;;;;;;;;;;;;;;;;;5043684;28;1177;-69
2022/06/20 13:42:32;;;;;;;;;;;;;;;;;;5043574;28;898;-69
2022/06/20 13:45:14;;;;;;;;;;;;;;;;;;5043499;28;878;-69
2022/06/20 13:47:50;;;;;;;;;;;;;;;;;;5043661;28;981;-70
2022/06/20 13:50:20;;;;;;;;;;;;;;;;;;5043303;28;879;-69
2022/06/20 13:53:08;;;;;;;;;;;;;;;;;;5043423;28;1368;-69
2022/06/20 13:55:50;;;;;;;;;;;;;;;;;;5043359;28;1831;-69
2022/06/20 13:58:42;;;;;;;;;;;;;;;;;;5043053;28;1973;-69
2022/06/20 14:01:09;;;;;;;;;;;;;;;;;;5040282;28;1103;-69
2022/06/20 14:03:54;;;;;;;;;;;;;;;;;;5043307;28;815;-69
2022/06/20 14:06:26;;;;;;;;;;;;;;;;;;5043588;28;814;-68
2022/06/20 14:08:53;;;;;;;;;;;;;;;;;;5042952;28;1302;-69
2022/06/20 14:11:40;;;;;;;;;;;;;;;;;;5025232;28;1019;-69
2022/06/20 14:14:12;;;;;;;;;;;;;;;;;;5043153;28;937;-69
2022/06/20 14:16:38;;;;;;;;;;;;;;;;;;5043138;28;1970;-69
2022/06/20 14:19:05;;;;;;;;;;;;;;;;;;5043080;28;1337;-69
2022/06/20 14:21:33;;;;;;;;;;;;;;;;;;5042993;28;831;-69
2022/06/20 14:23:58;;;;;;;;;;;;;;;;;;5042794;28;1017;-69
2022/06/20 14:26:25;;;;;;;;;;;;;;;;;;5042628;28;989;-69
2022/06/20 14:28:51;;;;;;;;;;;;;;;;;;5042658;28;1311;-69
2022/06/20 14:31:20;;;;;;;;;;;;;;;;;;5042885;28;847;-69
2022/06/20 14:33:51;;;;;;;;;;;;;;;;;;5042842;28;893;-69
2022/06/20 14:36:31;;;;;;;;;;;;;;;;;;5043039;28;1967;-69
2022/06/20 14:39:08;;;;;;;;;;;;;;;;;;5042559;28;1276;-69
2022/06/20 14:42:00;;;;;;;;;;;;;;;;;;5042373;28;1009;-69
2022/06/20 14:44:41;;;;;;;;;;;;;;;;;;5040568;28;985;-69
2022/06/20 14:47:13;;;;;;;;;;;;;;;;;;5025338;28;1273;-69
2022/06/20 14:49:44;;;;;;;;;;;;;;;;;;5042605;28;1181;-69
2022/06/20 14:52:15;;;;;;;;;;;;;;;;;;5041439;28;1333;-69
2022/06/20 14:54:53;;;;;;;;;;;;;;;;;;5042735;28;891;-69
2022/06/20 14:57:44;;;;;;;;;;;;;;;;;;5042336;28;1969;-69
2022/06/20 15:00:31;;;;;;;;;;;;;;;;;;5039469;28;1450;-69
2022/06/20 15:02:56;;;;;;;;;;;;;;;;;;5042658;28;772;-69
2022/06/20 15:05:26;;;;;;;;;;;;;;;;;;5041927;28;787;-69
2022/06/20 15:07:54;;;;;;;;;;;;;;;;;;5042274;28;1188;-69
2022/06/20 15:10:19;;;;;;;;;;;;;;;;;;5042261;28;981;-68
2022/06/20 15:12:46;;;;;;;;;;;;;;;;;;5042464;28;796;-70
2022/06/20 15:15:18;;;;;;;;;;;;;;;;;;5042345;28;800;-69
2022/06/20 15:17:43;;;;;;;;;;;;;;;;;;5042030;28;1897;-69
2022/06/20 15:20:23;;;;;;;;;;;;;;;;;;5042107;28;1274;-69
2022/06/20 15:22:53;;;;;;;;;;;;;;;;;;5042010;28;819;-69
2022/06/20 15:25:23;;;;;;;;;;;;;;;;;;5042093;28;858;-69
2022/06/20 15:28:01;;;;;;;;;;;;;;;;;;5041973;28;1270;-69
2022/06/20 15:30:35;;;;;;;;;;;;;;;;;;5042221;28;870;-69
2022/06/20 15:33:02;;;;;;;;;;;;;;;;;;5041788;28;831;-69
2022/06/20 15:35:51;;;;;;;;;;;;;;;;;;5042055;28;989;-69
2022/06/20 15:38:25;;;;;;;;;;;;;;;;;;5041420;28;1965;-68
2022/06/20 15:41:03;;;;;;;;;;;;;;;;;;5041887;28;823;-69
2022/06/20 15:43:33;;;;;;;;;;;;;;;;;;5041917;28;800;-68
2022/06/20 15:46:01;;;;;;;;;;;;;;;;;;5041924;28;886;-69
2022/06/20 15:48:33;;;;;;;;;;;;;;;;;;5041510;28;1189;-69
2022/06/20 15:50:59;;;;;;;;;;;;;;;;;;5041924;28;858;-69
2022/06/20 15:53:24;;;;;;;;;;;;;;;;;;5041770;28;1337;-69
2022/06/20 15:55:55;;;;;;;;;;;;;;;;;;5041567;28;949;-68
2022/06/20 15:58:23;;;;;;;;;;;;;;;;;;5041177;28;1866;-69
2022/06/20 16:00:57;;;;;;;;;;;;;;;;;;5041760;28;921;-69
2022/06/20 16:03:31;;;;;;;;;;;;;;;;;;5041567;28;890;-69
2022/06/20 16:05:59;;;;;;;;;;;;;;;;;;5041479;28;874;-69
2022/06/20 16:08:32;;;;;;;;;;;;;;;;;;5041286;28;1180;-69
2022/06/20 16:11:04;;;;;;;;;;;;;;;;;;5041380;28;882;-69
2022/06/20 16:13:32;;;;;;;;;;;;;;;;;;5041523;28;992;-69
2022/06/20 16:16:11;;;;;;;;;;;;;;;;;;5041399;28;957;-69
2022/06/20 16:18:51;;;;;;;;;;;;;;;;;;5040222;28;1902;-70
2022/06/20 16:21:17;;;;;;;;;;;;;;;;;;5023571;28;1330;-68
2022/06/20 16:23:42;;;;;;;;;;;;;;;;;;5041381;28;1001;-69
2022/06/20 16:26:13;;;;;;;;;;;;;;;;;;5041272;28;799;-69
2022/06/20 16:28:48;;;;;;;;;;;;;;;;;;5040957;28;1262;-69
2022/06/20 16:31:22;;;;;;;;;;;;;;;;;;5041496;28;1004;-69
2022/06/20 16:33:50;;;;;;;;;;;;;;;;;;5041256;28;847;-69
2022/06/20 16:36:17;;;;;;;;;;;;;;;;;;5041157;28;1897;-69
2022/06/20 16:38:42;;;;;;;;;;;;;;;;;;5041104;28;1255;-69
2022/06/20 16:41:21;;;;;;;;;;;;;;;;;;5040995;28;858;-69
2022/06/20 16:43:50;;;;;;;;;;;;;;;;;;5041177;28;926;-69
2022/06/20 16:46:19;;;;;;;;;;;;;;;;;;5041302;28;790;-69
2022/06/20 16:48:44;;;;;;;;;;;;;;;;;;5023076;28;1113;-69
2022/06/20 16:51:28;;;;;;;;;;;;;;;;;;5041005;28;979;-69
2022/06/20 16:53:57;;;;;;;;;;;;;;;;;;5038589;28;1435;-74
2022/06/20 16:56:25;;;;;;;;;;;;;;;;;;5040316;28;1969;-72
2022/06/20 16:59:03;;;;;;;;;;;;;;;;;;5039113;28;1345;-70
2022/06/20 17:01:31;;;;;;;;;;;;;;;;;;5041054;28;1543;-72
2022/06/20 17:03:56;;;;;;;;;;;;;;;;;;5040935;28;1448;-71
2022/06/20 17:06:22;;;;;;;;;;;;;;;;;;5040813;28;858;-71
2022/06/20 17:08:55;;;;;;;;;;;;;;;;;;5040306;28;1476;-72
2022/06/20 17:11:35;;;;;;;;;;;;;;;;;;5040857;28;1005;-71
2022/06/20 17:14:21;;;;;;;;;;;;;;;;;;5040013;28;1500;-71
2022/06/20 17:17:20;;;;;;;;;;;;;;;;;;5040136;28;1901;-71
2022/06/20 17:19:45;;;;;;;;;;;;;;;;;;5006881;28;1224;-70
2022/06/20 17:22:19;;;;;;;;;;;;;;;;;;5040336;28;854;-71
2022/06/20 17:25:06;;;;;;;;;;;;;;;;;;5040451;28;993;-71
2022/06/20 17:27:36;;;;;;;;;;;;;;;;;;5039596;28;1531;-71
2022/06/20 17:30:16;;;;;;;;;;;;;;;;;;5043042;28;1568;-70
2022/06/20 17:32:47;;;;;;;;;;;;;;;;;;5043490;28;890;-72
2022/06/20 17:35:12;;;;;;;;;;;;;;;;;;5043818;28;1409;-72
2022/06/20 17:38:00;;;;;;;;;;;;;;;;;;5051670;28;1971;-72
2022/06/20 17:40:25;;;;;;;;;;;;;;;;;;5047337;28;1451;-70
2022/06/20 17:42:57;;;;;;;;;;;;;;;;;;5025449;28;1409;-71
2022/06/20 17:45:28;;;;;;;;;;;;;;;;;;5043259;28;957;-71
2022/06/20 17:48:05;;;;;;;;;;;;;;;;;;5042303;28;1203;-71
2022/06/20 17:50:56;;;;;;;;;;;;;;;;;;5043070;28;1340;-72
2022/06/20 17:53:28;;;;;;;;;;;;;;;;;;5033973;28;1480;-71
2022/06/20 17:55:54;;;;;;;;;;;;;;;;;;5025285;28;1416;-71